sensor_id;sensor_type;location;lat;lon;timestamp;P1;durP1;ratioP1;P2;durP2;ratioP2
44728;SDS011;30457;53.590;9.922;2022-10-31T00:04:23;13.35;;;7.53;;
44728;SDS011;30457;53.590;9.922;2022-10-31T00:08:52;16.15;;;8.15;;
44728;SDS011;30457;53.590;9.922;2022-10-31T00:13:19;13.13;;;7.75;;
44728;SDS011;30457;53.590;9.922;2022-10-31T00:17:44;12.57;;;7.22;;
44728;SDS011;30457;53.590;9.922;2022-10-31T00:22:10;20.20;;;8.50;;
44728;SDS011;30457;53.590;9.922;2022-10-31T00:26:35;16.42;;;8.38;;
44728;SDS011;30457;53.590;9.922;2022-10-31T00:31:02;16.88;;;7.78;;
44728;SDS011;30457;53.590;9.922;2022-10-31T00:35:29;12.98;;;7.38;;
44728;SDS011;30457;53.590;9.922;2022-10-31T00:39:55;15.18;;;8.70;;
44728;SDS011;30457;53.590;9.922;2022-10-31T00:44:20;21.00;;;9.20;;
44728;SDS011;30457;53.590;9.922;2022-10-31T00:48:46;13.15;;;8.00;;
44728;SDS011;30457;53.590;9.922;2022-10-31T00:53:11;17.25;;;9.48;;
44728;SDS011;30457;53.590;9.922;2022-10-31T00:57:37;16.35;;;9.10;;
44728;SDS011;30457;53.590;9.922;2022-10-31T01:02:03;15.00;;;9.10;;
44728;SDS011;30457;53.590;9.922;2022-10-31T01:06:29;18.92;;;10.73;;
44728;SDS011;30457;53.590;9.922;2022-10-31T01:11:00;23.80;;;10.25;;
44728;SDS011;30457;53.590;9.922;2022-10-31T01:15:26;17.95;;;10.20;;
44728;SDS011;30457;53.590;9.922;2022-10-31T01:19:52;19.15;;;10.70;;
44728;SDS011;30457;53.590;9.922;2022-10-31T01:24:18;17.52;;;10.48;;
44728;SDS011;30457;53.590;9.922;2022-10-31T01:28:47;18.60;;;10.20;;
44728;SDS011;30457;53.590;9.922;2022-10-31T01:33:14;18.73;;;10.57;;
44728;SDS011;30457;53.590;9.922;2022-10-31T01:37:40;21.48;;;9.95;;
44728;SDS011;30457;53.590;9.922;2022-10-31T01:42:05;16.90;;;10.40;;
44728;SDS011;30457;53.590;9.922;2022-10-31T01:46:35;21.67;;;10.57;;
44728;SDS011;30457;53.590;9.922;2022-10-31T01:51:04;23.40;;;11.52;;
44728;SDS011;30457;53.590;9.922;2022-10-31T01:55:32;24.13;;;11.43;;
44728;SDS011;30457;53.590;9.922;2022-10-31T02:00:02;26.13;;;9.95;;
44728;SDS011;30457;53.590;9.922;2022-10-31T02:04:38;18.25;;;10.15;;
44728;SDS011;30457;53.590;9.922;2022-10-31T02:09:05;20.73;;;10.57;;
44728;SDS011;30457;53.590;9.922;2022-10-31T02:13:31;18.92;;;10.43;;
44728;SDS011;30457;53.590;9.922;2022-10-31T02:17:59;27.30;;;12.10;;
44728;SDS011;30457;53.590;9.922;2022-10-31T02:22:38;19.45;;;10.15;;
44728;SDS011;30457;53.590;9.922;2022-10-31T02:36:30;19.40;;;9.45;;
44728;SDS011;30457;53.590;9.922;2022-10-31T02:41:32;19.08;;;10.82;;
44728;SDS011;30457;53.590;9.922;2022-10-31T02:46:19;18.17;;;10.57;;
44728;SDS011;30457;53.590;9.922;2022-10-31T02:50:55;21.92;;;10.05;;
44728;SDS011;30457;53.590;9.922;2022-10-31T02:59:58;18.02;;;8.60;;
44728;SDS011;30457;53.590;9.922;2022-10-31T03:09:01;14.55;;;9.18;;
44728;SDS011;30457;53.590;9.922;2022-10-31T03:22:53;18.25;;;9.60;;
44728;SDS011;30457;53.590;9.922;2022-10-31T03:27:22;15.02;;;9.95;;
44728;SDS011;30457;53.590;9.922;2022-10-31T03:31:56;21.00;;;10.98;;
44728;SDS011;30457;53.590;9.922;2022-10-31T03:36:24;20.75;;;9.77;;
44728;SDS011;30457;53.590;9.922;2022-10-31T03:40:52;22.95;;;10.90;;
44728;SDS011;30457;53.590;9.922;2022-10-31T03:45:25;22.75;;;11.80;;
44728;SDS011;30457;53.590;9.922;2022-10-31T03:49:55;29.13;;;10.95;;
44728;SDS011;30457;53.590;9.922;2022-10-31T03:59:43;22.35;;;10.70;;
44728;SDS011;30457;53.590;9.922;2022-10-31T04:04:06;24.85;;;11.18;;
44728;SDS011;30457;53.590;9.922;2022-10-31T04:08:32;21.73;;;11.18;;
44728;SDS011;30457;53.590;9.922;2022-10-31T04:13:06;23.15;;;10.23;;
44728;SDS011;30457;53.590;9.922;2022-10-31T04:17:44;18.17;;;11.18;;
44728;SDS011;30457;53.590;9.922;2022-10-31T04:22:12;17.30;;;9.82;;
44728;SDS011;30457;53.590;9.922;2022-10-31T04:26:38;15.25;;;9.68;;
44728;SDS011;30457;53.590;9.922;2022-10-31T04:31:05;23.65;;;10.30;;
44728;SDS011;30457;53.590;9.922;2022-10-31T04:35:33;18.77;;;10.48;;
44728;SDS011;30457;53.590;9.922;2022-10-31T04:39:58;23.15;;;11.60;;
44728;SDS011;30457;53.590;9.922;2022-10-31T04:44:59;21.27;;;9.80;;
44728;SDS011;30457;53.590;9.922;2022-10-31T04:49:25;16.35;;;10.68;;
44728;SDS011;30457;53.590;9.922;2022-10-31T04:53:51;22.80;;;10.30;;
44728;SDS011;30457;53.590;9.922;2022-10-31T04:58:26;21.80;;;10.47;;
44728;SDS011;30457;53.590;9.922;2022-10-31T05:02:56;18.05;;;10.35;;
44728;SDS011;30457;53.590;9.922;2022-10-31T05:07:25;19.52;;;9.93;;
44728;SDS011;30457;53.590;9.922;2022-10-31T05:11:50;20.65;;;10.82;;
44728;SDS011;30457;53.590;9.922;2022-10-31T05:16:36;25.65;;;12.00;;
44728;SDS011;30457;53.590;9.922;2022-10-31T05:21:36;17.50;;;9.82;;
44728;SDS011;30457;53.590;9.922;2022-10-31T05:26:02;21.85;;;10.88;;
44728;SDS011;30457;53.590;9.922;2022-10-31T05:30:29;18.80;;;9.65;;
44728;SDS011;30457;53.590;9.922;2022-10-31T05:34:57;16.80;;;10.20;;
44728;SDS011;30457;53.590;9.922;2022-10-31T05:39:43;17.88;;;9.98;;
44728;SDS011;30457;53.590;9.922;2022-10-31T05:44:13;14.00;;;8.68;;
44728;SDS011;30457;53.590;9.922;2022-10-31T05:48:51;18.92;;;9.38;;
44728;SDS011;30457;53.590;9.922;2022-10-31T05:53:55;23.10;;;9.55;;
44728;SDS011;30457;53.590;9.922;2022-10-31T05:58:21;24.95;;;9.52;;
44728;SDS011;30457;53.590;9.922;2022-10-31T06:02:59;19.00;;;9.40;;
44728;SDS011;30457;53.590;9.922;2022-10-31T06:07:39;17.08;;;8.82;;
44728;SDS011;30457;53.590;9.922;2022-10-31T06:12:06;18.77;;;8.80;;
44728;SDS011;30457;53.590;9.922;2022-10-31T06:16:58;19.58;;;9.32;;
44728;SDS011;30457;53.590;9.922;2022-10-31T06:21:52;18.58;;;10.07;;
44728;SDS011;30457;53.590;9.922;2022-10-31T06:26:18;17.00;;;8.45;;
44728;SDS011;30457;53.590;9.922;2022-10-31T06:30:44;15.43;;;9.07;;
44728;SDS011;30457;53.590;9.922;2022-10-31T06:35:10;16.85;;;8.63;;
44728;SDS011;30457;53.590;9.922;2022-10-31T06:39:35;18.35;;;9.00;;
44728;SDS011;30457;53.590;9.922;2022-10-31T06:44:03;18.85;;;9.85;;
44728;SDS011;30457;53.590;9.922;2022-10-31T06:53:19;14.80;;;7.88;;
44728;SDS011;30457;53.590;9.922;2022-10-31T06:57:49;14.25;;;8.75;;
44728;SDS011;30457;53.590;9.922;2022-10-31T07:02:15;13.80;;;7.72;;
44728;SDS011;30457;53.590;9.922;2022-10-31T07:06:42;19.77;;;9.50;;
44728;SDS011;30457;53.590;9.922;2022-10-31T07:11:07;16.23;;;8.90;;
44728;SDS011;30457;53.590;9.922;2022-10-31T07:15:34;13.93;;;8.52;;
44728;SDS011;30457;53.590;9.922;2022-10-31T07:20:01;16.63;;;9.15;;
44728;SDS011;30457;53.590;9.922;2022-10-31T07:24:28;17.13;;;8.32;;
44728;SDS011;30457;53.590;9.922;2022-10-31T07:28:55;11.32;;;7.25;;
44728;SDS011;30457;53.590;9.922;2022-10-31T07:33:23;11.10;;;7.38;;
44728;SDS011;30457;53.590;9.922;2022-10-31T07:38:12;19.63;;;8.30;;
44728;SDS011;30457;53.590;9.922;2022-10-31T07:42:39;22.90;;;6.28;;
44728;SDS011;30457;53.590;9.922;2022-10-31T07:47:25;9.48;;;5.45;;
44728;SDS011;30457;53.590;9.922;2022-10-31T07:52:14;10.48;;;6.32;;
44728;SDS011;30457;53.590;9.922;2022-10-31T07:57:18;9.85;;;5.47;;
44728;SDS011;30457;53.590;9.922;2022-10-31T08:01:43;9.23;;;6.10;;
44728;SDS011;30457;53.590;9.922;2022-10-31T08:06:28;10.38;;;6.05;;
44728;SDS011;30457;53.590;9.922;2022-10-31T08:11:18;9.80;;;5.43;;
44728;SDS011;30457;53.590;9.922;2022-10-31T08:15:43;10.57;;;5.82;;
44728;SDS011;30457;53.590;9.922;2022-10-31T08:20:14;9.30;;;5.45;;
44728;SDS011;30457;53.590;9.922;2022-10-31T08:24:44;6.82;;;5.22;;
44728;SDS011;30457;53.590;9.922;2022-10-31T08:29:10;10.27;;;6.53;;
44728;SDS011;30457;53.590;9.922;2022-10-31T08:33:37;8.60;;;5.30;;
44728;SDS011;30457;53.590;9.922;2022-10-31T08:38:12;8.38;;;5.25;;
44728;SDS011;30457;53.590;9.922;2022-10-31T08:42:39;10.10;;;5.07;;
44728;SDS011;30457;53.590;9.922;2022-10-31T08:47:05;8.85;;;5.18;;
44728;SDS011;30457;53.590;9.922;2022-10-31T08:51:33;9.55;;;4.78;;
44728;SDS011;30457;53.590;9.922;2022-10-31T08:55:58;8.27;;;5.90;;
44728;SDS011;30457;53.590;9.922;2022-10-31T09:00:24;13.15;;;5.70;;
44728;SDS011;30457;53.590;9.922;2022-10-31T09:04:59;8.60;;;6.00;;
44728;SDS011;30457;53.590;9.922;2022-10-31T09:09:25;7.97;;;5.90;;
44728;SDS011;30457;53.590;9.922;2022-10-31T09:13:51;7.72;;;5.60;;
44728;SDS011;30457;53.590;9.922;2022-10-31T09:18:36;12.48;;;5.82;;
44728;SDS011;30457;53.590;9.922;2022-10-31T09:23:03;8.93;;;5.70;;
44728;SDS011;30457;53.590;9.922;2022-10-31T09:27:33;12.65;;;6.63;;
44728;SDS011;30457;53.590;9.922;2022-10-31T09:31:59;8.73;;;5.97;;
44728;SDS011;30457;53.590;9.922;2022-10-31T09:36:27;11.30;;;6.53;;
44728;SDS011;30457;53.590;9.922;2022-10-31T09:40:55;12.18;;;6.65;;
44728;SDS011;30457;53.590;9.922;2022-10-31T09:45:35;12.45;;;7.63;;
44728;SDS011;30457;53.590;9.922;2022-10-31T09:50:49;11.60;;;5.77;;
44728;SDS011;30457;53.590;9.922;2022-10-31T09:55:41;12.82;;;7.22;;
44728;SDS011;30457;53.590;9.922;2022-10-31T10:00:14;12.10;;;7.15;;
44728;SDS011;30457;53.590;9.922;2022-10-31T10:04:47;12.93;;;6.63;;
44728;SDS011;30457;53.590;9.922;2022-10-31T10:09:29;11.70;;;6.78;;
44728;SDS011;30457;53.590;9.922;2022-10-31T10:14:21;11.68;;;6.43;;
44728;SDS011;30457;53.590;9.922;2022-10-31T10:24:10;10.32;;;5.95;;
44728;SDS011;30457;53.590;9.922;2022-10-31T10:29:01;10.55;;;5.72;;
44728;SDS011;30457;53.590;9.922;2022-10-31T10:33:31;10.27;;;6.03;;
44728;SDS011;30457;53.590;9.922;2022-10-31T10:42:59;10.93;;;6.47;;
44728;SDS011;30457;53.590;9.922;2022-10-31T10:47:49;11.10;;;6.18;;
44728;SDS011;30457;53.590;9.922;2022-10-31T10:56:59;7.68;;;5.35;;
44728;SDS011;30457;53.590;9.922;2022-10-31T11:01:32;11.65;;;5.30;;
44728;SDS011;30457;53.590;9.922;2022-10-31T11:05:57;10.60;;;5.82;;
44728;SDS011;30457;53.590;9.922;2022-10-31T11:10:24;11.88;;;6.53;;
44728;SDS011;30457;53.590;9.922;2022-10-31T11:14:51;11.60;;;6.40;;
44728;SDS011;30457;53.590;9.922;2022-10-31T11:19:25;11.90;;;5.95;;
44728;SDS011;30457;53.590;9.922;2022-10-31T11:24:12;11.90;;;7.20;;
44728;SDS011;30457;53.590;9.922;2022-10-31T11:28:40;12.15;;;7.40;;
44728;SDS011;30457;53.590;9.922;2022-10-31T11:33:11;12.20;;;6.57;;
44728;SDS011;30457;53.590;9.922;2022-10-31T11:37:52;11.70;;;6.82;;
44728;SDS011;30457;53.590;9.922;2022-10-31T11:42:21;11.40;;;5.70;;
44728;SDS011;30457;53.590;9.922;2022-10-31T11:47:14;14.05;;;6.65;;
44728;SDS011;30457;53.590;9.922;2022-10-31T11:51:41;10.27;;;6.72;;
44728;SDS011;30457;53.590;9.922;2022-10-31T11:56:14;15.82;;;8.85;;
44728;SDS011;30457;53.590;9.922;2022-10-31T12:00:47;16.80;;;7.85;;
44728;SDS011;30457;53.590;9.922;2022-10-31T12:05:18;19.33;;;10.02;;
44728;SDS011;30457;53.590;9.922;2022-10-31T12:09:48;18.58;;;10.65;;
44728;SDS011;30457;53.590;9.922;2022-10-31T12:19:05;22.83;;;12.98;;
44728;SDS011;30457;53.590;9.922;2022-10-31T12:33:15;21.92;;;12.38;;
44728;SDS011;30457;53.590;9.922;2022-10-31T12:52:16;16.95;;;10.75;;
44728;SDS011;30457;53.590;9.922;2022-10-31T12:57:23;17.17;;;10.48;;
44728;SDS011;30457;53.590;9.922;2022-10-31T13:06:55;14.80;;;9.95;;
44728;SDS011;30457;53.590;9.922;2022-10-31T13:11:36;23.38;;;12.40;;
44728;SDS011;30457;53.590;9.922;2022-10-31T13:16:12;18.02;;;10.35;;
44728;SDS011;30457;53.590;9.922;2022-10-31T13:20:44;17.95;;;10.48;;
44728;SDS011;30457;53.590;9.922;2022-10-31T13:25:13;17.58;;;10.70;;
44728;SDS011;30457;53.590;9.922;2022-10-31T13:29:44;16.88;;;8.82;;
44728;SDS011;30457;53.590;9.922;2022-10-31T13:34:51;23.00;;;11.85;;
44728;SDS011;30457;53.590;9.922;2022-10-31T13:39:24;18.17;;;10.45;;
44728;SDS011;30457;53.590;9.922;2022-10-31T13:44:13;23.77;;;10.00;;
44728;SDS011;30457;53.590;9.922;2022-10-31T13:48:43;16.42;;;9.07;;
44728;SDS011;30457;53.590;9.922;2022-10-31T13:53:10;13.57;;;8.07;;
44728;SDS011;30457;53.590;9.922;2022-10-31T13:57:42;15.40;;;9.43;;
44728;SDS011;30457;53.590;9.922;2022-10-31T14:02:14;22.42;;;10.07;;
44728;SDS011;30457;53.590;9.922;2022-10-31T14:06:46;22.13;;;10.82;;
44728;SDS011;30457;53.590;9.922;2022-10-31T14:11:18;18.58;;;11.63;;
44728;SDS011;30457;53.590;9.922;2022-10-31T14:15:53;17.52;;;10.32;;
44728;SDS011;30457;53.590;9.922;2022-10-31T14:20:24;15.25;;;8.75;;
44728;SDS011;30457;53.590;9.922;2022-10-31T14:25:01;17.23;;;9.25;;
44728;SDS011;30457;53.590;9.922;2022-10-31T14:29:27;16.10;;;8.30;;
44728;SDS011;30457;53.590;9.922;2022-10-31T14:33:59;12.50;;;7.00;;
44728;SDS011;30457;53.590;9.922;2022-10-31T14:52:42;13.70;;;7.75;;
44728;SDS011;30457;53.590;9.922;2022-10-31T14:57:19;9.50;;;6.40;;
44728;SDS011;30457;53.590;9.922;2022-10-31T15:01:52;11.77;;;7.57;;
44728;SDS011;30457;53.590;9.922;2022-10-31T15:06:24;11.18;;;5.85;;
44728;SDS011;30457;53.590;9.922;2022-10-31T15:10:50;14.50;;;8.23;;
44728;SDS011;30457;53.590;9.922;2022-10-31T15:15:25;11.57;;;7.22;;
44728;SDS011;30457;53.590;9.922;2022-10-31T15:24:17;11.57;;;6.22;;
44728;SDS011;30457;53.590;9.922;2022-10-31T15:28:43;13.15;;;6.85;;
44728;SDS011;30457;53.590;9.922;2022-10-31T15:33:19;11.55;;;6.47;;
44728;SDS011;30457;53.590;9.922;2022-10-31T15:37:46;12.98;;;6.82;;
44728;SDS011;30457;53.590;9.922;2022-10-31T15:42:17;12.75;;;6.60;;
44728;SDS011;30457;53.590;9.922;2022-10-31T15:46:59;13.20;;;8.05;;
44728;SDS011;30457;53.590;9.922;2022-10-31T15:51:30;15.68;;;7.53;;
44728;SDS011;30457;53.590;9.922;2022-10-31T15:55:59;17.90;;;7.55;;
44728;SDS011;30457;53.590;9.922;2022-10-31T16:00:29;13.13;;;7.40;;
44728;SDS011;30457;53.590;9.922;2022-10-31T16:05:00;15.93;;;8.10;;
44728;SDS011;30457;53.590;9.922;2022-10-31T16:09:26;14.73;;;8.80;;
44728;SDS011;30457;53.590;9.922;2022-10-31T16:18:30;14.18;;;7.70;;
44728;SDS011;30457;53.590;9.922;2022-10-31T16:23:01;15.35;;;8.70;;
44728;SDS011;30457;53.590;9.922;2022-10-31T16:27:31;14.13;;;8.25;;
44728;SDS011;30457;53.590;9.922;2022-10-31T16:31:58;17.00;;;8.50;;
44728;SDS011;30457;53.590;9.922;2022-10-31T16:36:31;16.67;;;7.85;;
44728;SDS011;30457;53.590;9.922;2022-10-31T16:40:58;12.93;;;7.30;;
44728;SDS011;30457;53.590;9.922;2022-10-31T16:45:27;12.57;;;7.63;;
44728;SDS011;30457;53.590;9.922;2022-10-31T16:49:55;12.18;;;6.30;;
44728;SDS011;30457;53.590;9.922;2022-10-31T16:54:24;12.75;;;6.95;;
44728;SDS011;30457;53.590;9.922;2022-10-31T16:58:50;13.82;;;7.40;;
44728;SDS011;30457;53.590;9.922;2022-10-31T17:03:15;15.68;;;7.38;;
44728;SDS011;30457;53.590;9.922;2022-10-31T17:07:41;16.20;;;7.70;;
44728;SDS011;30457;53.590;9.922;2022-10-31T17:12:09;13.77;;;6.95;;
44728;SDS011;30457;53.590;9.922;2022-10-31T17:16:43;12.38;;;7.20;;
44728;SDS011;30457;53.590;9.922;2022-10-31T17:21:11;13.50;;;6.65;;
44728;SDS011;30457;53.590;9.922;2022-10-31T17:25:43;11.18;;;6.80;;
44728;SDS011;30457;53.590;9.922;2022-10-31T17:30:12;14.75;;;6.78;;
44728;SDS011;30457;53.590;9.922;2022-10-31T17:34:39;12.20;;;6.05;;
44728;SDS011;30457;53.590;9.922;2022-10-31T17:39:04;14.45;;;7.95;;
44728;SDS011;30457;53.590;9.922;2022-10-31T17:43:31;14.30;;;7.18;;
44728;SDS011;30457;53.590;9.922;2022-10-31T17:47:57;18.88;;;8.18;;
44728;SDS011;30457;53.590;9.922;2022-10-31T17:52:22;19.45;;;7.72;;
44728;SDS011;30457;53.590;9.922;2022-10-31T17:56:48;17.05;;;7.80;;
44728;SDS011;30457;53.590;9.922;2022-10-31T18:01:14;15.23;;;8.23;;
44728;SDS011;30457;53.590;9.922;2022-10-31T18:05:49;18.95;;;8.88;;
44728;SDS011;30457;53.590;9.922;2022-10-31T18:10:16;13.53;;;8.00;;
44728;SDS011;30457;53.590;9.922;2022-10-31T18:14:42;18.88;;;8.80;;
44728;SDS011;30457;53.590;9.922;2022-10-31T18:19:09;15.13;;;7.88;;
44728;SDS011;30457;53.590;9.922;2022-10-31T18:23:37;15.35;;;7.40;;
44728;SDS011;30457;53.590;9.922;2022-10-31T18:28:04;18.80;;;8.35;;
44728;SDS011;30457;53.590;9.922;2022-10-31T18:32:30;13.45;;;6.82;;
44728;SDS011;30457;53.590;9.922;2022-10-31T18:36:55;17.90;;;8.10;;
44728;SDS011;30457;53.590;9.922;2022-10-31T18:41:21;18.88;;;8.30;;
44728;SDS011;30457;53.590;9.922;2022-10-31T18:45:46;17.13;;;8.65;;
44728;SDS011;30457;53.590;9.922;2022-10-31T18:50:12;18.35;;;8.73;;
44728;SDS011;30457;53.590;9.922;2022-10-31T18:54:38;17.50;;;8.48;;
44728;SDS011;30457;53.590;9.922;2022-10-31T18:59:03;18.27;;;9.57;;
44728;SDS011;30457;53.590;9.922;2022-10-31T19:03:29;14.73;;;7.65;;
44728;SDS011;30457;53.590;9.922;2022-10-31T19:07:55;15.90;;;8.25;;
44728;SDS011;30457;53.590;9.922;2022-10-31T19:12:20;17.02;;;7.43;;
44728;SDS011;30457;53.590;9.922;2022-10-31T19:16:46;19.40;;;8.10;;
44728;SDS011;30457;53.590;9.922;2022-10-31T19:21:12;15.48;;;7.25;;
44728;SDS011;30457;53.590;9.922;2022-10-31T19:25:41;14.43;;;6.82;;
44728;SDS011;30457;53.590;9.922;2022-10-31T19:30:07;14.70;;;7.18;;
44728;SDS011;30457;53.590;9.922;2022-10-31T19:34:33;14.63;;;7.53;;
44728;SDS011;30457;53.590;9.922;2022-10-31T19:38:59;16.83;;;8.95;;
44728;SDS011;30457;53.590;9.922;2022-10-31T19:43:25;18.00;;;8.45;;
44728;SDS011;30457;53.590;9.922;2022-10-31T19:47:51;13.82;;;7.10;;
44728;SDS011;30457;53.590;9.922;2022-10-31T19:52:17;16.90;;;8.07;;
44728;SDS011;30457;53.590;9.922;2022-10-31T19:56:43;15.63;;;7.20;;
44728;SDS011;30457;53.590;9.922;2022-10-31T20:01:14;15.55;;;7.43;;
44728;SDS011;30457;53.590;9.922;2022-10-31T20:05:41;15.23;;;8.40;;
44728;SDS011;30457;53.590;9.922;2022-10-31T20:10:08;15.55;;;7.90;;
44728;SDS011;30457;53.590;9.922;2022-10-31T20:14:34;15.30;;;8.70;;
44728;SDS011;30457;53.590;9.922;2022-10-31T20:19:00;15.73;;;7.70;;
44728;SDS011;30457;53.590;9.922;2022-10-31T20:23:25;17.63;;;7.88;;
44728;SDS011;30457;53.590;9.922;2022-10-31T20:27:51;15.55;;;7.82;;
44728;SDS011;30457;53.590;9.922;2022-10-31T20:32:16;17.35;;;8.10;;
44728;SDS011;30457;53.590;9.922;2022-10-31T20:36:43;16.75;;;8.02;;
44728;SDS011;30457;53.590;9.922;2022-10-31T20:41:10;18.35;;;8.35;;
44728;SDS011;30457;53.590;9.922;2022-10-31T20:45:35;23.27;;;9.18;;
44728;SDS011;30457;53.590;9.922;2022-10-31T20:50:01;19.05;;;9.23;;
44728;SDS011;30457;53.590;9.922;2022-10-31T20:54:29;21.45;;;10.18;;
44728;SDS011;30457;53.590;9.922;2022-10-31T20:58:55;17.55;;;8.40;;
44728;SDS011;30457;53.590;9.922;2022-10-31T21:03:21;19.00;;;9.15;;
44728;SDS011;30457;53.590;9.922;2022-10-31T21:07:48;23.25;;;10.48;;
44728;SDS011;30457;53.590;9.922;2022-10-31T21:12:14;24.38;;;9.27;;
44728;SDS011;30457;53.590;9.922;2022-10-31T21:16:39;23.60;;;10.40;;
44728;SDS011;30457;53.590;9.922;2022-10-31T21:21:12;29.67;;;9.88;;
44728;SDS011;30457;53.590;9.922;2022-10-31T21:25:40;22.73;;;10.15;;
44728;SDS011;30457;53.590;9.922;2022-10-31T21:30:06;18.58;;;9.32;;
44728;SDS011;30457;53.590;9.922;2022-10-31T21:34:32;21.30;;;9.98;;
44728;SDS011;30457;53.590;9.922;2022-10-31T21:38:58;22.85;;;10.77;;
44728;SDS011;30457;53.590;9.922;2022-10-31T21:43:23;22.38;;;10.45;;
44728;SDS011;30457;53.590;9.922;2022-10-31T21:47:49;16.65;;;8.63;;
44728;SDS011;30457;53.590;9.922;2022-10-31T21:52:14;26.60;;;10.90;;
44728;SDS011;30457;53.590;9.922;2022-10-31T21:56:40;22.45;;;11.05;;
44728;SDS011;30457;53.590;9.922;2022-10-31T22:01:06;24.73;;;11.48;;
44728;SDS011;30457;53.590;9.922;2022-10-31T22:05:32;22.00;;;11.10;;
44728;SDS011;30457;53.590;9.922;2022-10-31T22:09:58;23.92;;;10.82;;
44728;SDS011;30457;53.590;9.922;2022-10-31T22:14:24;28.35;;;12.75;;
44728;SDS011;30457;53.590;9.922;2022-10-31T22:18:50;21.83;;;10.98;;
44728;SDS011;30457;53.590;9.922;2022-10-31T22:23:17;21.63;;;10.05;;
44728;SDS011;30457;53.590;9.922;2022-10-31T22:27:43;27.42;;;12.23;;
44728;SDS011;30457;53.590;9.922;2022-10-31T22:32:08;23.23;;;10.77;;
44728;SDS011;30457;53.590;9.922;2022-10-31T22:36:34;23.13;;;11.20;;
44728;SDS011;30457;53.590;9.922;2022-10-31T22:41:00;23.05;;;10.60;;
44728;SDS011;30457;53.590;9.922;2022-10-31T22:45:26;22.65;;;10.70;;
44728;SDS011;30457;53.590;9.922;2022-10-31T22:49:51;26.77;;;12.18;;
44728;SDS011;30457;53.590;9.922;2022-10-31T22:54:17;27.17;;;12.00;;
44728;SDS011;30457;53.590;9.922;2022-10-31T22:58:43;24.40;;;11.63;;
44728;SDS011;30457;53.590;9.922;2022-10-31T23:03:09;25.77;;;12.63;;
44728;SDS011;30457;53.590;9.922;2022-10-31T23:07:34;26.95;;;12.18;;
44728;SDS011;30457;53.590;9.922;2022-10-31T23:12:00;25.52;;;10.88;;
44728;SDS011;30457;53.590;9.922;2022-10-31T23:21:13;18.85;;;8.98;;
44728;SDS011;30457;53.590;9.922;2022-10-31T23:25:56;22.13;;;10.57;;
44728;SDS011;30457;53.590;9.922;2022-10-31T23:30:41;24.00;;;11.70;;
44728;SDS011;30457;53.590;9.922;2022-10-31T23:35:09;20.63;;;10.57;;
44728;SDS011;30457;53.590;9.922;2022-10-31T23:39:35;25.17;;;11.15;;
44728;SDS011;30457;53.590;9.922;2022-10-31T23:44:00;29.02;;;12.18;;
44728;SDS011;30457;53.590;9.922;2022-10-31T23:48:26;19.67;;;10.60;;
44728;SDS011;30457;53.590;9.922;2022-10-31T23:52:51;20.70;;;10.38;;
44728;SDS011;30457;53.590;9.922;2022-10-31T23:57:18;22.25;;;11.68;;
